Time;durP1;ratioP1;P1;durP2;ratioP2;P2;SDS_P1;SDS_P2;PMS_P1;PMS_P2;Temp;Humidity;BMP_temperature;BMP_pressure;BME280_temperature;BME280_humidity;BME280_pressure;Samples;Min_cycle;Max_cycle;Signal;HPM_P1;HPM_P2
2022/05/24 00:01:46;;;;;;;8.05;6.07;;;;;;;19.12;54.46;94403.34;5115515;28;20294;-68
2022/05/24 00:04:13;;;;;;;9.65;6.32;;;;;;;19.05;54.50;94401.44;5115200;28;20565;-68
2022/05/24 00:06:39;;;;;;;7.57;6.18;;;;;;;19.02;54.82;94398.72;5114576;28;20203;-68
2022/05/24 00:09:06;;;;;;;6.50;5.85;;;;;;;18.97;54.89;94397.97;5115546;28;20179;-68
2022/05/24 00:11:34;;;;;;;7.30;6.18;;;;;;;18.94;55.00;94398.03;5115467;28;20192;-68
2022/05/24 00:14:02;;;;;;;7.68;5.75;;;;;;;18.91;55.20;94396.88;5115347;28;20231;-68
2022/05/24 00:16:28;;;;;;;6.72;5.70;;;;;;;18.87;55.23;94403.72;5115447;28;20195;-68
2022/05/24 00:18:55;;;;;;;5.95;5.40;;;;;;;18.85;55.31;94404.16;5115272;28;20198;-68
2022/05/24 00:21:23;;;;;;;6.03;5.43;;;;;;;18.89;54.32;94406.91;5114552;28;20200;-68
2022/05/24 00:23:49;;;;;;;6.45;5.75;;;;;;;18.91;54.11;94405.25;5115468;28;20184;-68
2022/05/24 00:26:23;;;;;;;8.20;5.80;;;;;;;18.90;54.11;94408.47;5114535;28;20188;-68
2022/05/24 00:28:49;;;;;;;6.80;5.55;;;;;;;18.88;54.29;94416.47;5114373;28;20550;-68
2022/05/24 00:31:18;;;;;;;6.00;5.00;;;;;;;18.82;54.20;94418.19;5115305;28;20184;-68
2022/05/24 00:33:45;;;;;;;5.20;4.70;;;;;;;18.79;54.20;94419.03;5119057;28;20294;-68
2022/05/24 00:36:12;;;;;;;6.70;4.85;;;;;;;18.75;54.36;94414.28;5118530;28;20252;-68
2022/05/24 00:38:39;;;;;;;5.68;5.00;;;;;;;18.74;54.56;94423.09;5119149;28;20199;-68
2022/05/24 00:41:16;;;;;;;6.68;5.32;;;;;;;18.69;54.81;94417.94;5117877;28;20188;-68
2022/05/24 00:43:46;;;;;;;6.78;5.25;;;;;;;18.66;54.61;94418.75;5117739;28;20250;-68
2022/05/24 00:46:17;;;;;;;6.07;4.85;;;;;;;18.64;53.76;94422.00;5119058;28;20191;-69
2022/05/24 00:48:49;;;;;;;5.95;5.05;;;;;;;18.63;54.13;94419.63;5118076;28;20195;-69
2022/05/24 00:51:19;;;;;;;4.90;4.50;;;;;;;18.64;53.63;94421.19;5118985;28;20176;-69
2022/05/24 00:53:49;;;;;;;5.18;4.78;;;;;;;18.61;53.63;94424.84;5118716;28;20215;-69
2022/05/24 00:56:20;;;;;;;5.32;4.88;;;;;;;18.60;53.71;94421.25;5118756;28;20199;-69
2022/05/24 00:58:52;;;;;;;5.00;4.50;;;;;;;18.61;53.60;94422.81;5118453;28;20184;-69
2022/05/24 01:01:27;;;;;;;5.03;4.57;;;;;;;18.60;53.35;94435.22;5118708;28;20187;-69
2022/05/24 01:03:55;;;;;;;5.93;4.50;;;;;;;18.61;53.50;94438.78;5118387;28;20237;-69
2022/05/24 01:06:22;;;;;;;5.25;4.50;;;;;;;18.56;53.59;94437.28;5117876;28;20206;-69
2022/05/24 01:08:49;;;;;;;5.32;4.82;;;;;;;18.53;53.47;94424.94;5118523;28;20200;-69
2022/05/24 01:11:16;;;;;;;6.95;5.05;;;;;;;18.56;53.70;94428.91;5118240;28;20191;-69
2022/05/24 01:13:44;;;;;;;4.82;4.43;;;;;;;18.58;53.63;94431.25;5117177;28;20212;-69
2022/05/24 01:16:11;;;;;;;5.93;4.93;;;;;;;18.57;54.20;94424.88;5117628;28;20195;-69
2022/05/24 01:18:38;;;;;;;6.07;5.47;;;;;;;18.54;53.46;94425.72;5117425;28;20192;-69
2022/05/24 01:21:09;;;;;;;4.85;4.43;;;;;;;18.55;53.16;94424.50;5118398;28;20210;-69
2022/05/24 01:23:43;;;;;;;5.65;4.68;;;;;;;18.53;53.38;94429.72;5118340;28;20191;-69
2022/05/24 01:26:13;;;;;;;5.38;4.88;;;;;;;18.51;53.78;94426.56;5117403;28;20215;-69
2022/05/24 01:28:43;;;;;;;5.15;4.72;;;;;;;18.48;53.53;94424.59;5116945;28;20211;-69
2022/05/24 01:31:10;;;;;;;4.05;3.75;;;;;;;18.43;53.11;94425.84;5117246;28;20192;-68
2022/05/24 01:36:24;;;;;;;5.32;3.90;;;;;;;18.36;52.72;94397.25;5117971;28;20188;-68
2022/05/24 01:38:53;;;;;;;4.07;3.67;;;;;;;18.29;52.42;94401.72;5117975;28;20180;-69
2022/05/24 01:41:23;;;;;;;3.72;3.50;;;;;;;18.26;52.95;94422.09;5117989;28;20199;-69
2022/05/24 01:43:54;;;;;;;4.60;3.90;;;;;;;18.25;53.37;94412.13;5116826;28;20261;-69
2022/05/24 01:46:23;;;;;;;4.50;4.10;;;;;;;18.23;53.57;94413.78;5117824;28;20195;-69
2022/05/24 01:48:52;;;;;;;5.75;4.10;;;;;;;18.20;53.55;94409.03;5117741;28;20180;-69
2022/05/24 01:51:22;;;;;;;6.20;4.38;;;;;;;18.17;53.64;94412.66;5117069;28;20192;-69
2022/05/24 01:53:52;;;;;;;4.90;4.03;;;;;;;18.13;54.15;94420.28;5116416;28;20256;-69
2022/05/24 01:56:23;;;;;;;5.88;5.10;;;;;;;18.15;55.43;94420.63;5116811;28;20627;-69
2022/05/24 01:58:54;;;;;;;6.20;5.60;;;;;;;18.11;55.74;94428.25;5116696;28;20203;-69
2022/05/24 02:01:27;;;;;;;6.20;5.60;;;;;;;18.07;55.62;94431.09;5117559;28;20279;-69
2022/05/24 02:03:54;;;;;;;6.18;5.65;;;;;;;18.07;55.62;94442.25;5117269;28;20206;-69
2022/05/24 02:06:23;;;;;;;6.20;4.88;;;;;;;18.08;54.91;94441.03;5116784;28;20196;-68
2022/05/24 02:08:50;;;;;;;5.72;4.60;;;;;;;18.11;54.70;94440.22;5116525;28;20231;-68
2022/05/24 02:11:19;;;;;;;4.78;4.38;;;;;;;18.13;54.42;94442.59;5117455;28;20196;-68
2022/05/24 02:13:48;;;;;;;5.25;4.53;;;;;;;18.11;54.09;94439.44;5117398;28;20250;-68
2022/05/24 02:16:18;;;;;;;5.47;4.20;;;;;;;18.12;54.40;94435.41;5117062;28;20527;-69
2022/05/24 02:18:46;;;;;;;4.45;4.05;;;;;;;18.14;54.08;94444.19;5117111;28;20187;-69
2022/05/24 02:21:13;;;;;;;3.70;3.40;;;;;;;18.13;53.79;94443.38;5116496;28;20196;-69
2022/05/24 02:23:41;;;;;;;4.15;3.58;;;;;;;18.07;53.48;94438.69;5116876;28;20198;-69
2022/05/24 02:26:10;;;;;;;4.18;3.78;;;;;;;18.05;53.50;94425.16;5116388;28;20215;-69
2022/05/24 02:28:37;;;;;;;4.03;3.63;;;;;;;18.01;53.68;94416.00;5116181;28;20191;-69
2022/05/24 02:31:07;;;;;;;4.75;3.53;;;;;;;17.97;54.16;94396.56;5116702;28;20184;-69
2022/05/24 02:33:36;;;;;;;3.80;3.50;;;;;;;17.96;54.16;94402.53;5115940;28;20525;-71
2022/05/24 02:36:04;;;;;;;6.03;3.58;;;;;;;17.95;54.33;94409.31;5116052;28;20188;-71
2022/05/24 02:38:31;;;;;;;5.72;3.92;;;;;;;17.92;54.34;94433.25;5116582;28;20185;-70
2022/05/24 02:43:42;;;;;;;5.45;3.85;;;;;;;17.97;54.43;94446.78;5115410;28;20242;-70
2022/05/24 02:46:09;;;;;;;4.45;4.03;;;;;;;17.98;54.64;94455.94;5116656;28;20195;-70
2022/05/24 02:48:38;;;;;;;4.30;4.00;;;;;;;17.99;54.58;94457.50;5115384;28;20648;-70
2022/05/24 02:51:09;;;;;;;5.53;4.15;;;;;;;17.94;55.14;94444.81;5115661;28;20188;-70
2022/05/24 02:53:36;;;;;;;4.65;3.67;;;;;;;17.93;55.12;94446.00;5116322;28;20191;-70
2022/05/24 02:56:04;;;;;;;4.35;3.95;;;;;;;17.93;55.40;94443.19;5114573;28;20196;-70
2022/05/24 02:58:30;;;;;;;5.72;4.25;;;;;;;17.94;55.19;94447.59;5115549;28;20256;-70
2022/05/24 03:00:57;;;;;;;5.97;4.38;;;;;;;17.93;55.65;94462.72;5116360;28;20199;-70
2022/05/24 03:03:24;;;;;;;4.45;4.05;;;;;;;17.91;55.54;94456.78;5116293;28;20184;-71
2022/05/24 03:05:52;;;;;;;5.43;4.22;;;;;;;17.90;55.71;94459.97;5115367;28;20198;-70
2022/05/24 03:11:05;;;;;;;3.90;3.60;;;;;;;17.86;55.93;94446.06;5114911;28;20309;-70
2022/05/24 03:16:17;;;;;;;4.90;4.07;;;;;;;17.74;56.52;94452.94;5116276;28;20228;-71
2022/05/24 03:18:44;;;;;;;4.35;3.80;;;;;;;17.71;56.51;94458.56;5114884;28;20191;-71
2022/05/24 03:21:12;;;;;;;5.15;3.60;;;;;;;17.69;56.87;94458.97;5116112;28;20204;-71
2022/05/24 03:23:38;;;;;;;6.18;3.97;;;;;;;17.65;57.24;94454.66;5115792;28;20180;-70
2022/05/24 03:26:05;;;;;;;4.43;3.97;;;;;;;17.62;57.02;94445.09;5115322;28;20199;-71
2022/05/24 03:28:32;;;;;;;5.13;4.10;;;;;;;17.58;57.25;94444.34;5114794;28;20626;-70
2022/05/24 03:30:59;;;;;;;4.55;3.83;;;;;;;17.55;57.28;94434.03;5115818;28;20184;-70
2022/05/24 03:33:26;;;;;;;4.25;3.85;;;;;;;17.53;57.41;94439.22;5115390;28;20203;-70
2022/05/24 03:35:53;;;;;;;6.68;3.97;;;;;;;17.53;57.49;94442.78;5115638;28;20218;-70
2022/05/24 03:38:21;;;;;;;4.00;3.70;;;;;;;17.52;57.40;94446.78;5115564;28;20184;-71
2022/05/24 03:40:48;;;;;;;4.40;4.00;;;;;;;17.52;57.58;94446.78;5114358;28;20298;-70
2022/05/24 03:43:16;;;;;;;4.30;3.90;;;;;;;17.51;57.98;94442.41;5115393;28;20238;-69
2022/05/24 03:45:43;;;;;;;4.10;3.70;;;;;;;17.46;57.95;94450.44;5115785;28;20180;-69
2022/05/24 03:48:09;;;;;;;5.90;3.83;;;;;;;17.48;57.73;94450.81;5115676;28;20196;-69
2022/05/24 03:50:36;;;;;;;5.65;3.95;;;;;;;17.49;58.10;94450.38;5114732;28;20198;-69
2022/05/24 03:53:03;;;;;;;6.40;4.03;;;;;;;17.52;57.90;94452.34;5115527;28;20179;-69
2022/05/24 03:55:31;;;;;;;4.68;4.15;;;;;;;17.52;57.85;94451.56;5114607;28;20231;-69
2022/05/24 03:58:01;;;;;;;4.47;4.00;;;;;;;17.50;57.92;94456.75;5114819;28;20195;-70
2022/05/24 04:00:30;;;;;;;5.18;4.25;;;;;;;17.53;57.98;94456.72;5114645;28;20187;-69
2022/05/24 04:02:58;;;;;;;6.60;4.30;;;;;;;17.51;57.97;94464.72;5115511;28;20211;-69
2022/05/24 04:05:24;;;;;;;5.13;3.92;;;;;;;17.52;58.24;94473.88;5115225;28;20176;-69
2022/05/24 04:07:52;;;;;;;4.88;4.25;;;;;;;17.51;58.53;94472.31;5117116;28;20203;-69
2022/05/24 04:10:20;;;;;;;4.63;4.20;;;;;;;17.49;58.66;94481.06;5118731;28;20203;-69
2022/05/24 04:12:48;;;;;;;6.40;4.43;;;;;;;17.45;58.65;94480.31;5118685;28;20236;-69
2022/05/24 04:15:16;;;;;;;5.90;4.50;;;;;;;17.44;58.72;94481.50;5119114;28;20211;-69
2022/05/24 04:17:42;;;;;;;4.90;4.47;;;;;;;17.45;58.73;94476.72;5119459;28;20209;-69
2022/05/24 04:20:10;;;;;;;5.30;4.47;;;;;;;17.43;58.88;94459.59;5119339;28;20546;-69
2022/05/24 04:22:37;;;;;;;6.43;5.10;;;;;;;17.42;59.27;94481.13;5119498;28;20191;-69
2022/05/24 04:25:05;;;;;;;6.15;4.88;;;;;;;17.42;58.96;94477.53;5119151;28;20194;-70
2022/05/24 04:27:32;;;;;;;5.95;4.68;;;;;;;17.44;58.91;94478.72;5118495;28;20195;-69
2022/05/24 04:30:00;;;;;;;6.93;5.05;;;;;;;17.43;58.87;94471.56;5119344;28;20184;-69
2022/05/24 04:32:27;;;;;;;6.50;5.10;;;;;;;17.43;58.90;94470.75;5118433;28;20237;-69
2022/05/24 04:34:54;;;;;;;5.32;4.65;;;;;;;17.38;59.11;94472.00;5117862;28;20211;-69
2022/05/24 04:37:21;;;;;;;7.03;4.88;;;;;;;17.34;59.31;94471.25;5119295;28;20195;-69
2022/05/24 04:39:47;;;;;;;4.97;4.57;;;;;;;17.35;59.39;94475.59;5118729;28;20187;-69
2022/05/24 04:42:19;;;;;;;6.90;4.57;;;;;;;17.39;59.11;94470.00;5118737;28;20235;-69
2022/05/24 04:44:47;;;;;;;7.40;5.03;;;;;;;17.41;59.42;94460.03;5118661;28;20611;-69
2022/05/24 04:47:16;;;;;;;5.28;4.40;;;;;;;17.45;59.54;94465.56;5118704;28;20191;-69
2022/05/24 04:49:46;;;;;;;6.05;4.85;;;;;;;17.47;59.24;94474.34;5118660;28;20188;-69
2022/05/24 04:52:13;;;;;;;5.00;4.50;;;;;;;17.49;59.40;94481.06;5118811;28;20191;-69
2022/05/24 04:54:41;;;;;;;6.18;4.57;;;;;;;17.53;59.13;94486.59;5118733;28;20215;-69
2022/05/24 04:57:08;;;;;;;5.10;4.60;;;;;;;17.54;59.54;94485.44;5117795;28;20207;-69
2022/05/24 04:59:35;;;;;;;5.28;4.78;;;;;;;17.58;59.47;94485.38;5117552;28;20198;-69
2022/05/24 05:02:03;;;;;;;5.32;4.75;;;;;;;17.59;59.51;94500.91;5118744;28;20184;-69
2022/05/24 05:04:31;;;;;;;5.18;4.75;;;;;;;17.61;59.15;94501.28;5118748;28;20180;-69
2022/05/24 05:06:58;;;;;;;7.60;5.03;;;;;;;17.67;59.34;94500.41;5117735;28;20203;-69
2022/05/24 05:09:25;;;;;;;5.97;5.10;;;;;;;17.70;59.22;94509.97;5118676;28;20180;-69
2022/05/24 05:11:52;;;;;;;7.95;5.15;;;;;;;17.75;58.93;94513.13;5118091;28;20176;-69
2022/05/24 05:14:19;;;;;;;6.47;4.82;;;;;;;17.78;59.02;94506.72;5117237;28;20206;-69
2022/05/24 05:16:45;;;;;;;5.10;4.60;;;;;;;17.83;59.21;94510.25;5117433;28;20211;-68
2022/05/24 05:19:12;;;;;;;5.28;4.78;;;;;;;17.85;59.27;94507.88;5116728;28;20184;-68
2022/05/24 05:21:41;;;;;;;4.53;4.13;;;;;;;17.87;58.63;94511.03;5100520;28;20226;-69
2022/05/24 05:24:09;;;;;;;5.70;4.82;;;;;;;17.85;58.28;94510.66;5118402;28;20216;-69
2022/05/24 05:26:36;;;;;;;5.25;4.72;;;;;;;17.79;58.74;94510.28;5118223;28;20206;-69
2022/05/24 05:29:03;;;;;;;6.38;5.38;;;;;;;17.79;58.63;94504.72;5117939;28;20530;-68
2022/05/24 05:31:29;;;;;;;5.85;5.05;;;;;;;17.83;58.49;94505.50;5118287;28;20195;-68
2022/05/24 05:33:57;;;;;;;7.00;5.47;;;;;;;17.82;58.70;94517.06;5117328;28;20184;-68
2022/05/24 05:36:27;;;;;;;5.97;5.40;;;;;;;17.78;59.86;94526.25;5117742;28;20200;-69
2022/05/24 05:38:56;;;;;;;5.35;4.85;;;;;;;17.80;59.28;94534.22;5117917;28;20571;-69
2022/05/24 05:41:25;;;;;;;6.93;5.38;;;;;;;17.78;58.31;94533.81;5117055;28;20188;-68
2022/05/24 05:43:52;;;;;;;7.70;6.13;;;;;;;17.74;58.61;94535.81;5117443;28;20231;-68
2022/05/24 05:46:19;;;;;;;6.00;5.50;;;;;;;17.74;58.47;94530.25;5117103;28;20202;-68
2022/05/24 05:48:46;;;;;;;5.70;5.20;;;;;;;17.75;58.61;94535.44;5117476;28;20207;-68
2022/05/24 05:51:14;;;;;;;7.63;5.50;;;;;;;17.82;58.68;94531.78;5117801;28;20207;-68
2022/05/24 05:53:41;;;;;;;7.70;5.18;;;;;;;17.86;58.53;94532.53;5117814;28;20180;-68
2022/05/24 05:56:14;;;;;;;6.47;5.28;;;;;;;17.91;58.58;94542.50;5116985;28;20222;-68
2022/05/24 05:58:41;;;;;;;7.03;5.50;;;;;;;17.96;57.97;94536.44;5116752;28;20207;-68
2022/05/24 06:01:14;;;;;;;6.78;5.45;;;;;;;17.95;57.80;94548.81;5116687;28;20202;-68
2022/05/24 06:03:40;;;;;;;6.20;5.60;;;;;;;17.92;57.95;94549.63;5116349;28;20611;-69
2022/05/24 06:06:07;;;;;;;6.13;5.43;;;;;;;17.88;57.96;94552.47;5117455;28;20260;-68
2022/05/24 06:08:34;;;;;;;6.22;5.63;;;;;;;17.85;57.94;94549.72;5117515;28;20254;-68
2022/05/24 06:11:01;;;;;;;5.90;5.30;;;;;;;17.89;58.30;94550.47;5117187;28;20192;-68
2022/05/24 06:13:29;;;;;;;8.27;5.30;;;;;;;17.95;58.40;94559.97;5116913;28;20191;-68
2022/05/24 06:15:56;;;;;;;5.70;5.20;;;;;;;18.00;58.27;94560.31;5116576;28;20212;-69
2022/05/24 06:18:22;;;;;;;6.95;6.20;;;;;;;18.02;57.96;94560.69;5116976;28;20248;-68
2022/05/24 06:20:49;;;;;;;6.18;5.45;;;;;;;18.08;58.11;94555.44;5115990;28;20546;-68
2022/05/24 06:23:16;;;;;;;6.20;5.30;;;;;;;18.10;57.84;94543.88;5117088;28;20184;-68
2022/05/24 06:25:43;;;;;;;6.22;5.60;;;;;;;18.12;57.53;94549.84;5116265;28;20583;-68
2022/05/24 06:28:14;;;;;;;6.57;5.35;;;;;;;18.11;57.43;94548.25;5116107;28;20219;-68
2022/05/24 06:30:42;;;;;;;7.10;6.22;;;;;;;18.11;58.10;94543.47;5116757;28;20248;-68
2022/05/24 06:33:09;;;;;;;7.10;5.13;;;;;;;18.18;58.37;94543.38;5116949;28;20214;-68
2022/05/24 06:35:36;;;;;;;6.18;5.57;;;;;;;18.22;57.73;94535.78;5116823;28;20211;-68
2022/05/24 06:38:03;;;;;;;6.47;5.72;;;;;;;18.26;57.77;94536.56;5116593;28;20195;-68
2022/05/24 06:40:30;;;;;;;6.82;5.90;;;;;;;18.32;57.30;94531.28;5116863;28;20188;-68
2022/05/24 06:42:57;;;;;;;6.68;6.07;;;;;;;18.32;57.48;94525.69;5116294;28;20302;-68
2022/05/24 06:45:24;;;;;;;6.22;5.65;;;;;;;18.33;57.37;94532.06;5116858;28;20286;-68
2022/05/24 06:47:52;;;;;;;7.68;5.60;;;;;;;18.36;56.94;94525.66;5115699;28;20203;-68
2022/05/24 06:50:20;;;;;;;6.80;5.95;;;;;;;18.38;56.93;94524.06;5116629;28;20249;-68
2022/05/24 06:52:47;;;;;;;6.60;6.07;;;;;;;18.38;57.40;94521.25;5115717;28;20525;-68
2022/05/24 06:55:15;;;;;;;6.38;5.78;;;;;;;18.41;57.52;94512.06;5116709;28;20211;-69
2022/05/24 06:57:41;;;;;;;7.68;6.10;;;;;;;18.44;57.11;94513.97;5115990;28;20591;-66
2022/05/24 07:03:02;;;;;;;7.40;5.38;;;;;;;18.61;57.92;94509.41;5115462;28;20195;-68
2022/05/24 07:05:29;;;;;;;7.00;6.35;;;;;;;18.71;57.39;94507.72;5115314;28;20187;-65
2022/05/24 07:07:56;;;;;;;6.93;6.28;;;;;;;18.75;56.56;94508.47;5116345;28;20195;-65
2022/05/24 07:10:23;;;;;;;6.30;5.70;;;;;;;18.77;56.87;94511.63;5116031;28;20184;-65
2022/05/24 07:12:59;;;;;;;6.50;5.75;;;;;;;18.84;57.06;94510.72;5116326;28;20218;-65
2022/05/24 07:15:26;;;;;;;7.80;5.60;;;;;;;18.90;56.42;94515.44;5116148;28;20225;-66
2022/05/24 07:17:52;;;;;;;7.72;6.28;;;;;;;18.95;56.09;94514.16;5116116;28;20203;-65
2022/05/24 07:20:21;;;;;;;6.18;5.57;;;;;;;18.96;56.28;94524.16;5114870;28;20191;-65
2022/05/24 07:22:49;;;;;;;6.78;5.75;;;;;;;19.03;56.13;94521.25;5115062;28;20203;-66
2022/05/24 07:25:16;;;;;;;7.20;6.47;;;;;;;19.08;56.02;94520.78;5115721;28;20195;-65
2022/05/24 07:27:42;;;;;;;6.78;5.85;;;;;;;19.10;56.15;94515.56;5115492;28;20196;-66
2022/05/24 07:30:10;;;;;;;10.85;6.10;;;;;;;19.17;56.34;94520.25;5115052;28;20192;-65
2022/05/24 07:32:37;;;;;;;6.85;6.15;;;;;;;19.26;55.66;94514.13;5114986;28;20207;-65
2022/05/24 07:35:04;;;;;;;10.00;6.68;;;;;;;19.29;55.75;94507.72;5114836;28;20195;-65
2022/05/24 07:37:32;;;;;;;6.25;5.32;;;;;;;19.36;55.80;94516.00;5115934;28;20213;-66
2022/05/24 07:48:23;;;;;;;9.05;6.60;;;;;;;19.57;56.04;94518.44;5073309;28;20193;-65
2022/05/24 07:50:50;;;;;;;8.07;6.80;;;;;;;19.61;55.54;94507.19;5073215;28;20201;-65
2022/05/24 07:53:19;;;;;;;7.32;6.63;;;;;;;19.63;55.04;94513.97;5080671;28;20207;-65
2022/05/24 07:55:46;;;;;;;11.52;7.50;;;;;;;19.61;54.65;94510.78;5115448;28;20207;-65
2022/05/24 07:58:13;;;;;;;7.55;6.78;;;;;;;19.64;55.33;94504.34;5115631;28;20249;-65
2022/05/24 08:00:40;;;;;;;7.80;6.22;;;;;;;19.70;56.26;94493.47;5114717;28;20289;-65
2022/05/24 08:03:07;;;;;;;8.23;6.63;;;;;;;19.81;55.18;94493.28;5114686;28;20191;-65
2022/05/24 08:05:35;;;;;;;8.40;7.25;;;;;;;19.85;54.95;94508.00;5114603;28;20207;-65
2022/05/24 08:08:02;;;;;;;9.02;7.03;;;;;;;19.86;54.25;94502.00;5115080;28;20570;-65
2022/05/24 08:10:31;;;;;;;7.45;6.75;;;;;;;19.86;54.06;94501.19;5115177;28;20183;-66
2022/05/24 08:12:58;;;;;;;7.90;7.13;;;;;;;19.88;54.27;94498.75;5115199;28;20511;-65
2022/05/24 08:15:29;;;;;;;7.38;6.68;;;;;;;19.90;54.05;94497.13;5115608;28;20191;-65
2022/05/24 08:17:56;;;;;;;7.90;7.05;;;;;;;20.05;55.31;94505.28;5115462;28;20670;-65
2022/05/24 08:20:23;;;;;;;6.75;6.13;;;;;;;20.17;55.23;94505.41;5115216;28;20249;-65
2022/05/24 08:22:50;;;;;;;6.78;6.18;;;;;;;20.33;55.55;94506.72;5114439;28;20560;-65
2022/05/24 08:25:17;;;;;;;9.93;7.03;;;;;;;20.48;54.48;94510.84;5115041;28;20192;-65
2022/05/24 08:27:45;;;;;;;6.78;6.13;;;;;;;20.57;54.23;94496.28;5115506;28;20195;-65
2022/05/24 08:30:14;;;;;;;8.55;6.70;;;;;;;20.65;55.22;94495.69;5114536;28;20643;-65
2022/05/24 08:32:42;;;;;;;7.32;6.35;;;;;;;20.81;55.14;94494.97;5115459;28;20184;-67
2022/05/24 08:35:11;;;;;;;8.48;6.53;;;;;;;20.89;54.48;94495.63;5115643;28;20278;-65
2022/05/24 08:37:38;;;;;;;9.93;6.72;;;;;;;20.91;53.11;94498.75;5114927;28;20575;-65
2022/05/24 08:40:06;;;;;;;7.68;6.30;;;;;;;20.87;53.15;94498.03;5115256;28;20184;-65
2022/05/24 08:42:44;;;;;;;7.00;6.25;;;;;;;20.96;53.33;94495.47;5115246;28;20251;-65
2022/05/24 08:50:51;;;;;;;7.38;6.45;;;;;;;21.36;53.86;94501.78;5113789;28;20680;-68
2022/05/24 08:53:27;;;;;;;6.53;5.95;;;;;;;21.46;53.23;94496.34;5114912;28;20187;-68
2022/05/24 08:55:54;;;;;;;7.05;6.35;;;;;;;21.57;53.47;94500.50;5119040;28;20261;-68
2022/05/24 08:58:29;;;;;;;8.45;6.43;;;;;;;21.64;53.08;94502.31;5117974;28;20192;-68
2022/05/24 09:00:57;;;;;;;7.88;7.07;;;;;;;21.62;52.76;94511.19;5118012;28;20533;-68
2022/05/24 09:03:26;;;;;;;11.07;6.97;;;;;;;21.59;51.87;94506.44;5118849;28;20187;-68
2022/05/24 09:05:57;;;;;;;7.85;6.20;;;;;;;21.67;53.84;94506.25;5117860;28;20200;-68
2022/05/24 09:08:27;;;;;;;8.35;7.55;;;;;;;21.88;52.85;94505.72;5117803;28;20208;-68
2022/05/24 09:11:01;;;;;;;8.35;7.30;;;;;;;21.87;52.51;94504.94;5118320;28;20191;-68
2022/05/24 09:13:56;;;;;;;7.75;6.95;;;;;;;21.89;51.91;94493.25;5118673;28;20183;-67
2022/05/24 09:16:35;;;;;;;10.93;6.95;;;;;;;22.00;52.63;94488.16;5056224;28;20275;-68
2022/05/24 09:19:05;;;;;;;7.32;6.28;;;;;;;22.11;51.94;94480.28;5118802;28;20198;-68
2022/05/24 09:21:35;;;;;;;8.48;7.22;;;;;;;22.24;52.09;94480.34;5117266;28;20203;-68
2022/05/24 09:24:06;;;;;;;7.35;6.65;;;;;;;22.27;52.52;94476.66;5117638;28;20211;-68
2022/05/24 09:26:34;;;;;;;8.90;6.68;;;;;;;22.38;51.97;94469.97;5118409;28;20180;-68
2022/05/24 09:29:10;;;;;;;7.93;6.78;;;;;;;22.49;51.25;94468.41;5117865;28;20637;-68
2022/05/24 09:31:41;;;;;;;8.82;7.30;;;;;;;22.57;52.01;94472.59;5117605;28;20203;-67
2022/05/24 09:34:22;;;;;;;7.55;6.82;;;;;;;22.64;51.23;94470.81;5117328;28;20199;-68
2022/05/24 09:36:55;;;;;;;10.18;7.32;;;;;;;22.68;50.58;94479.94;5117061;28;20211;-68
2022/05/24 09:39:24;;;;;;;7.35;6.45;;;;;;;22.72;50.25;94484.22;5117792;28;20200;-67
2022/05/24 09:41:56;;;;;;;8.55;7.00;;;;;;;22.89;50.30;94482.13;5117925;28;20247;-68
2022/05/24 09:44:24;;;;;;;7.80;7.05;;;;;;;22.94;51.13;94478.78;5118140;28;20191;-68
2022/05/24 09:46:54;;;;;;;8.02;7.30;;;;;;;22.98;50.02;94468.19;5117181;28;20192;-70
2022/05/24 09:49:27;;;;;;;8.43;7.15;;;;;;;23.11;51.51;94473.06;5117022;28;20199;-68
2022/05/24 09:51:56;;;;;;;7.43;6.72;;;;;;;23.38;51.82;94464.16;5117538;28;20265;-67
2022/05/24 09:54:25;;;;;;;8.30;7.40;;;;;;;23.52;50.51;94461.69;5117547;28;20222;-68
2022/05/24 09:57:05;;;;;;;8.05;6.60;;;;;;;23.58;48.81;94461.91;5116730;28;20276;-68
2022/05/24 09:59:33;;;;;;;9.38;6.25;;;;;;;23.54;49.25;94467.66;5117337;28;20195;-68
2022/05/24 10:02:02;;;;;;;8.20;7.03;;;;;;;23.59;49.32;94465.50;5116666;28;20199;-68
2022/05/24 10:04:32;;;;;;;8.52;6.93;;;;;;;23.73;50.27;94463.03;5117237;28;20194;-68
2022/05/24 10:07:01;;;;;;;7.50;6.80;;;;;;;23.94;50.56;94452.31;5116487;28;20596;-68
2022/05/24 10:09:43;;;;;;;7.72;7.03;;;;;;;24.10;49.38;94462.63;5117647;28;20180;-68
2022/05/24 10:12:17;;;;;;;7.93;7.05;;;;;;;24.18;49.71;94459.13;5116235;28;20604;-68
2022/05/24 10:14:50;;;;;;;8.85;7.68;;;;;;;24.21;49.11;94460.22;5116481;28;20188;-68
2022/05/24 10:17:24;;;;;;;8.05;6.63;;;;;;;24.28;48.22;94459.97;5117024;28;20219;-68
2022/05/24 10:20:06;;;;;;;10.52;6.90;;;;;;;24.38;47.61;94467.25;5117515;28;20199;-68
2022/05/24 10:22:38;;;;;;;8.52;7.35;;;;;;;24.37;48.18;94456.44;5116590;28;20578;-68
2022/05/24 10:25:10;;;;;;;8.43;6.97;;;;;;;24.41;48.73;94455.09;5116458;28;20202;-68
2022/05/24 10:27:48;;;;;;;7.60;6.82;;;;;;;24.44;47.91;94456.22;5117121;28;20195;-68
2022/05/24 10:30:19;;;;;;;8.35;7.65;;;;;;;24.43;46.42;94449.78;5115991;28;20203;-68
2022/05/24 10:39:08;;;;;;;7.78;6.95;;;;;;;24.79;47.74;94440.00;5116055;28;20235;-67
2022/05/24 10:41:43;;;;;;;7.65;6.95;;;;;;;24.87;47.58;94444.13;5115766;28;20207;-67
2022/05/24 10:44:14;;;;;;;7.78;7.07;;;;;;;24.87;47.32;94435.66;5115988;28;20192;-67
2022/05/24 10:46:44;;;;;;;7.47;6.70;;;;;;;24.89;47.01;94432.38;5115779;28;20192;-67
2022/05/24 10:49:18;;;;;;;8.90;7.90;;;;;;;24.98;47.75;94418.31;5115817;28;20196;-67
2022/05/24 10:51:49;;;;;;;9.02;8.23;;;;;;;25.12;46.64;94423.44;5099401;28;20196;-67
2022/05/24 10:54:26;;;;;;;10.50;7.93;;;;;;;25.16;46.88;94426.13;5116595;28;20631;-67
2022/05/24 10:56:55;;;;;;;8.60;7.82;;;;;;;25.02;46.58;94430.28;5116708;28;20223;-67
2022/05/24 10:59:37;;;;;;;8.77;7.97;;;;;;;24.94;47.20;94428.97;5116546;28;20576;-67
2022/05/24 11:02:14;;;;;;;9.35;7.75;;;;;;;25.06;46.97;94419.63;5116503;28;20192;-67
2022/05/24 11:04:47;;;;;;;9.82;8.70;;;;;;;25.25;47.36;94425.38;5115552;28;20244;-67
2022/05/24 11:07:17;;;;;;;9.48;8.40;;;;;;;25.18;47.25;94420.81;5116623;28;20216;-67
2022/05/24 11:09:52;;;;;;;10.35;7.47;;;;;;;25.23;47.44;94422.22;5115786;28;20203;-67
2022/05/24 11:12:22;;;;;;;8.18;7.38;;;;;;;25.30;46.68;94419.91;5115930;28;20194;-67
2022/05/24 11:14:51;;;;;;;8.40;7.60;;;;;;;25.23;46.25;94416.59;5115181;28;20202;-67
2022/05/24 11:17:20;;;;;;;8.50;7.70;;;;;;;25.19;46.42;94409.03;5115518;28;20216;-67
2022/05/24 11:19:50;;;;;;;8.70;7.80;;;;;;;25.22;46.39;94398.88;5114896;28;20217;-67
2022/05/24 11:22:21;;;;;;;9.90;8.90;;;;;;;25.29;47.20;94392.16;5115990;28;20654;-68
2022/05/24 11:24:52;;;;;;;8.85;8.00;;;;;;;25.37;47.29;94391.38;5115886;28;20191;-67
2022/05/24 11:27:26;;;;;;;9.50;7.97;;;;;;;25.47;46.38;94388.59;5116030;28;20184;-67
2022/05/24 11:29:56;;;;;;;9.07;8.10;;;;;;;25.47;45.62;94380.91;5115030;28;20622;-68
2022/05/24 11:32:33;;;;;;;9.15;8.20;;;;;;;25.56;47.06;94380.16;5115750;28;20180;-68
2022/05/24 11:35:06;;;;;;;8.80;7.90;;;;;;;25.65;46.57;94375.31;5115936;28;20223;-68
2022/05/24 11:37:34;;;;;;;8.63;7.82;;;;;;;25.80;47.34;94374.75;5115753;28;20218;-67
2022/05/24 11:40:32;;;;;;;9.50;8.07;;;;;;;25.89;45.64;94377.56;5114979;28;20203;-68
2022/05/24 11:43:01;;;;;;;9.10;8.15;;;;;;;25.89;45.68;94369.88;5114441;28;20231;-68
2022/05/24 11:46:02;;;;;;;9.57;8.20;;;;;;;25.87;45.56;94366.75;5115493;28;20207;-68
2022/05/24 11:48:44;;;;;;;9.45;7.53;;;;;;;25.83;45.73;94360.47;5115442;28;20599;-67
2022/05/24 11:51:41;;;;;;;8.35;7.63;;;;;;;25.93;45.87;94353.56;5114804;28;20199;-67
2022/05/24 11:54:24;;;;;;;9.25;8.13;;;;;;;26.05;44.86;94349.00;5106255;28;20229;-67
2022/05/24 11:56:53;;;;;;;9.05;8.15;;;;;;;26.07;45.56;94340.84;5097690;28;20220;-67
2022/05/24 11:59:48;;;;;;;9.20;7.68;;;;;;;26.12;45.16;94343.03;5114728;28;20202;-67
2022/05/24 12:08:27;;;;;;;8.60;7.80;;;;;;;26.31;44.06;94326.06;5115218;28;20282;-67
2022/05/24 12:10:56;;;;;;;8.55;7.72;;;;;;;26.19;44.24;94324.22;5114805;28;20226;-67
2022/05/24 12:13:39;;;;;;;8.57;7.78;;;;;;;26.24;46.06;94327.16;5115838;28;20186;-67
2022/05/24 12:16:29;;;;;;;9.65;8.65;;;;;;;26.20;45.04;94325.75;5113421;28;20199;-68
2022/05/24 12:19:00;;;;;;;9.95;7.95;;;;;;;26.11;45.84;94326.56;5115021;28;20199;-68
2022/05/24 12:22:01;;;;;;;9.10;8.20;;;;;;;26.07;46.03;94315.44;5115573;28;20188;-67
2022/05/24 12:24:57;;;;;;;9.13;8.30;;;;;;;26.17;46.03;94321.84;5053508;28;20241;-67
2022/05/24 12:27:57;;;;;;;10.15;9.05;;;;;;;26.22;45.78;94311.94;5114858;28;20208;-67